Share

Gillette, WY

(North Gillette) (KWYGILLE6) Elev 4642 ft | 44.31 °N, 105.52 °W | Change Station

Current weather conditions updated 0 second ago

Overcast
Overcast
48.8 °F
Feels Like 49 °F
N
0.0
Wind Variable Wind from SSW
Gusts 4.0 mph
Sunrise 6:15 AM
Sunset 7:50 PM
Moon Waning Gibbous

Today is forecast to be Much Warmer than yesterday.

Pressure 30.04 in
Visibility 10.0 miles
Clouds Overcast 9000 ft
Windchill 49 °F
Dew Point 38 °F
Humidity 67%
Rainfall 0.00 in
Snow Depth Not available.
UV 1 out of 16
Pollen 8.40 out of 12
Air Quality Not available.
Flu Activity Sporadic
METAR KBYG 171553Z AUTO 13006KT 10SM OVC090 04/00 A3000 RMK AO2 SLP172 T00440000

More Conditions Fewer Conditions

Pressure 30.04 in
Visibility 10.0 miles
Clouds Overcast 9000 ft
Windchill 49 °F
Dew Point 38 °F
Humidity 67%
Rainfall 0.00 in
Snow Depth Not available.
UV 1 out of 16
Pollen 8.40 out of 12
Air Quality Not available.
Flu Activity Sporadic
METAR KBYG 171553Z AUTO 13006KT 10SM OVC090 04/00 A3000 RMK AO2 SLP172 T00440000

More Conditions Fewer Conditions

10-Day Forecast

Almanac

Astronomy

Apr. 17, 2014 Rise Set
Actual Time 6:15 AM MDT 7:50 PM MDT
Civil Twilight 5:44 AM MDT 8:20 PM MDT
Nautical Twilight 5:07 AM MDT 8:58 PM MDT
Astronomical Twilight 4:27 AM MDT 9:38 PM MDT
Moon 10:43 PM MDT 7:44 AM MDT
Length of Visible Light 14h 36m
Length of Day
13h 34m
Tomorrow will be 2m 56s longer.
Waning Gibbous, 93% of the Moon is Illuminated
Today
Waning Gibbous
Apr 22
Last Quarter
Apr 29
New
May 6
First Quarter
May 14
Full

Today's Extremes

State Highs State Lows

Community

  • New Day
    New Day
  • Lake Michigan Sunrise
    Lake Michigan Sunrise
  • sunset from izmir, narlıdere
    sunset from izmir, narlıdere
  • oregon cherry
    oregon cherry
  • Sunset over the Bay
    Sunset over the Bay

WunderPhotos

Upload Photos

1,702,077 photos uploaded!

Nearby

Snow Depth

Station Depth Elevation
Casper Mountain 55 in 7850 ft
Reno Hill 62 in 8500 ft
Laprele Creek 30 in 8375 ft
Windy Peak 30 in 7900 ft
Townsend Creek 28 in 8700 ft

Coastal Water Temperatures

Place Temperature
No Stations Reporting

Earthquake Activity

City Distance Mag. Time & Date
No recent earthquake activity has been reported nearby.
Minimum magnitude displayed is 2.5.

Nearby Weather Stations

Station Location Temp. Windchill Dew Point Humidity Wind Precip. Elev Updated Type
RAWS ECHETA WY, Gillette, WY 42 °F 34 °F 35 °F 75% SSW  at  15 mph 0.02 in / hr 4396 ft 9:51 AM MDT MADIS
(North Gillette), Gillette, WY 48.8 °F 49 °F 38 °F 67% SSW  at  0.0 mph 0.00 in / hr 4642 ft 11:21 AM MDT Rapid Fire

Show More Stations Show Fewer Stations

What do you think?

We're not finished. Please let us know what you like, what you don't like, and what you are still missing.